Flight Track Log - Related Links

Times and Time Zones

All times are in EDT time to prevent confusion due to time zone crossing. See the AVN21 flight status page for this flight to view local times or setup timezone preferences in your user account.

Time Position Orientation Groundspeed Altitude Reporting Facility
EDT Latitude Longitude Course Direction KTS MPH feet Rate Location/Type
Mon 08:56:38 PM -27.3962 153.1220 70° East 100 115  Level FlightAware ADS-B
Mon 08:56:58 PM -27.3858 153.1280 27° Northeast 153 176 100 1,200 Climbing FlightAware ADS-B
Mon 08:57:18 PM -27.3725 153.1357 27° Northeast 154 177 800 1,800 Climbing FlightAware ADS-B
Mon 08:57:38 PM -27.3598 153.1447 32° Northeast 168 193 1,300 1,350 Climbing FlightAware ADS-B
Mon 08:57:58 PM -27.3475 153.1570 42° Northeast 193 222 1,700 1,050 Climbing FlightAware ADS-B
Mon 08:58:18 PM -27.3325 153.1721 42° Northeast 216 249 2,000 1,650 Climbing FlightAware ADS-B
Mon 08:58:38 PM -27.3208 153.1859 46° Northeast 224 258 2,800 2,400 Climbing FlightAware ADS-B
Mon 08:58:48 PM -27.3145 153.1990 62° Northeast 233 268 3,200 1,800 Climbing FlightAware ADS-B
Mon 08:59:08 PM -27.3070 153.2237 71° East 256 295 3,700 1,200 Climbing FlightAware ADS-B
Mon 08:59:28 PM -27.2997 153.2502 73° East 280 322 4,000 900 Climbing FlightAware ADS-B
Mon 08:59:48 PM -27.2913 153.2799 72° East 303 349 4,300 900 Climbing FlightAware ADS-B
Mon 09:00:08 PM -27.2826 153.3108 72° East 323 372 4,600 1,350 Climbing FlightAware ADS-B
Mon 09:00:28 PM -27.2735 153.3433 73° East 335 386 5,200 1,950 Climbing FlightAware ADS-B
Mon 09:00:48 PM -27.2647 153.3749 73° East 337 388 5,900 2,250 Climbing FlightAware ADS-B
Mon 09:01:08 PM -27.2547 153.4104 72° East 341 392 6,700 2,250 Climbing FlightAware ADS-B
Mon 09:01:28 PM -27.2451 153.4440 72° East 349 402 7,400 1,950 Climbing FlightAware ADS-B
Mon 09:01:48 PM -27.2355 153.4777 72° East 354 407 8,000 1,950 Climbing FlightAware ADS-B
Mon 09:02:08 PM -27.2247 153.5154 72° East 362 417 8,700 2,100 Climbing FlightAware ADS-B
Mon 09:02:28 PM -27.2145 153.5514 72° East 371 427 9,400 2,280 Climbing FlightAware ADS-B
Mon 09:02:58 PM -27.1985 153.6071 72° East 378 435 10,600 2,400 Climbing FlightAware ADS-B
Mon 09:03:18 PM -27.1886 153.6401 71° East 383 441 11,400 2,400 Climbing FlightAware ADS-B
Mon 09:03:28 PM -27.1797 153.6626 66° East 388 447 11,800 2,233 Climbing FlightAware ADS-B
Mon 09:04:01 PM -27.1477 153.7213 66° East 397 457 13,000 2,040 Climbing Aus ATC (RADAR)
Mon 09:04:18 PM -27.1270 153.7469 66° East 411 473 13,500 2,000 Climbing FlightAware ADS-B
Mon 09:04:28 PM -27.1104 153.7587 32° Northeast 414 476 13,900 2,400 Climbing FlightAware ADS-B
Mon 09:04:58 PM -27.0584 153.7843 24° Northeast 420 483 15,100 2,500 Climbing FlightAware ADS-B
Mon 09:05:28 PM -27.0034 153.8115 24° Northeast 428 493 16,400 2,900 Climbing FlightAware ADS-B
Mon 09:05:58 PM -26.9516 153.8378 24° Northeast 422 486 18,000 3,100 Climbing FlightAware ADS-B
Mon 09:06:28 PM -26.8976 153.8671 26° Northeast 422 486 19,500 2,700 Climbing FlightAware ADS-B
Mon 09:06:58 PM -26.8455 153.8966 27° Northeast 428 493 20,700 2,164 Climbing FlightAware ADS-B
Mon 09:07:29 PM -26.7886 153.9285 27° Northeast 435 501 21,700 1,869 Climbing FlightAware ADS-B
Mon 09:07:59 PM -26.7417 153.9576 29° Northeast 452 520 22,600 1,680 Climbing FlightAware ADS-B
Mon 09:08:19 PM -26.7091 153.9948 46° Northeast 471 542 23,100 1,560 Climbing FlightAware ADS-B
Mon 09:08:49 PM -26.6762 154.0609 61° Northeast 484 557 23,900 1,629 Climbing FlightAware ADS-B
Mon 09:09:29 PM -26.6333 154.1535 63° Northeast 493 567 25,000 1,543 Climbing FlightAware ADS-B
Mon 09:09:59 PM -26.6039 154.2165 62° Northeast 502 578 25,700 1,200 Climbing FlightAware ADS-B
Mon 09:10:29 PM -26.5703 154.2885 62° Northeast 512 589 26,200 1,300 Climbing FlightAware ADS-B
Mon 09:10:59 PM -26.5377 154.3579 62° Northeast 517 595 27,000 1,500 Climbing FlightAware ADS-B
Mon 09:11:29 PM -26.5034 154.4309 62° Northeast 521 600 27,700 1,300 Climbing FlightAware ADS-B
Mon 09:11:59 PM -26.4729 154.4956 62° Northeast 525 604 28,300 1,543 Climbing FlightAware ADS-B
Mon 09:12:39 PM -26.4253 154.5963 62° Northeast 521 600 29,500 1,538 Climbing FlightAware ADS-B
Mon 09:13:17 PM -26.3799 154.6917 62° Northeast 527 606 30,300 1,114 Climbing FlightAware ADS-B
Mon 09:13:49 PM -26.3460 154.7627 62° Northeast 534 615 30,800 1,000 Climbing FlightAware ADS-B
Mon 09:14:29 PM -26.2966 154.8666 62° Northeast 540 621 31,500 1,200 Climbing FlightAware ADS-B
Mon 09:14:59 PM -26.2625 154.9379 62° Northeast 541 623 32,200 1,300 Climbing FlightAware ADS-B
Mon 09:15:29 PM -26.2274 155.0109 62° Northeast 540 621 32,800 1,147 Climbing FlightAware ADS-B
Mon 09:16:07 PM -26.1817 155.1062 62° Northeast 543 625 33,500 1,190 Climbing FlightAware ADS-B
Mon 09:17:35 PM -26.0789 155.3250 62° Northeast 535 616 35,300 291 Climbing Aus ATC (RADAR)
Mon 09:17:50 PM -26.0760 155.3270 62° Northeast 543 625 34,000 800 Descending FlightAware ADS-B
Mon 09:18:05 PM -26.0432 155.3980 62° Northeast 535 616 35,700 2,850 Climbing Aus ATC (RADAR)
Mon 09:18:30 PM -26.0129 155.4592 62° Northeast 537 618 35,900 -2,267 Climbing Aus ATC (RADAR)
Mon 09:18:50 PM -26.0160 155.4530 61° Northeast 543 625 34,000 514 Descending FlightAware ADS-B
Mon 09:19:05 PM -25.9703 155.5462 61° Northeast 543 625 36,200  Climbing Aus ATC (RADAR)
Mon 09:19:38 PM -25.9680 155.5540 61° Northeast 543 625 34,000 1,029 Descending FlightAware ADS-B
Mon 09:19:40 PM -25.9277 155.6338 61° Northeast 546 628 36,800 4,865 Climbing Aus ATC (RADAR)
Mon 09:20:15 PM -25.8858 155.7213 61° Northeast 543 625 37,000 -3,652 Climbing Aus ATC (RADAR)
Mon 09:20:26 PM -25.9200 155.6540 61° Northeast 543 625 34,000  Descending FlightAware ADS-B
Mon 09:21:05 PM -25.8254 155.8457 61° Northeast 542 624 37,000  Climbing Aus ATC (RADAR)
Mon 09:21:15 PM -25.8710 155.7570 61° Northeast 543 625 34,000  Descending FlightAware ADS-B
Mon 09:21:30 PM -25.7944 155.9070 61° Northeast 541 623 37,000  Climbing Aus ATC (RADAR)
Mon 09:22:16 PM -25.8100 155.8850 61° Northeast 543 625 34,000  Descending FlightAware ADS-B
Mon 09:22:30 PM -25.7208 156.0546 61° Northeast 539 620 37,000  Climbing Aus ATC (RADAR)
Mon 09:22:40 PM -25.7860 155.9350 61° Northeast 543 625 34,000  Descending FlightAware ADS-B
Mon 09:22:55 PM -25.6897 156.1158 61° Northeast 541 623 37,000 4,000 Climbing Aus ATC (RADAR)
Mon 09:23:25 PM -25.6482 156.1864 61° Northeast 537 618 37,000 -4,000 Level Aus ATC (RADAR)
Mon 09:23:40 PM -25.7250 156.0610 56° Northeast 543 625 34,000  Descending FlightAware ADS-B
Mon 09:24:00 PM -25.5996 156.2669 56° Northeast 533 613 37,000  Climbing Aus ATC (RADAR)
Mon 09:24:28 PM -25.6770 156.1610 56° Northeast 543 625 34,000  Descending FlightAware ADS-B
Mon 09:24:45 PM -25.5388 156.3718 56° Northeast 532 612 37,000  Climbing Aus ATC (RADAR)
Mon 09:25:17 PM -25.6280 156.2630 56° Northeast 543 625 34,000  Descending FlightAware ADS-B
Mon 09:25:20 PM -25.4912 156.4530 56° Northeast 532 612 37,000  Climbing Aus ATC (RADAR)
Mon 09:25:29 PM -25.6160 156.2890 63° Northeast 543 625 34,000  Descending FlightAware ADS-B
Mon 09:26:14 PM -25.4193 156.5827 63° Northeast 532 612 37,000 3,000 Climbing Aus ATC (RADAR)
Mon 09:26:29 PM -25.3975 156.6154 54° Northeast 530 610 37,000 -12,000 Level Aus ATC (RADAR)
Mon 09:26:29 PM -25.5560 156.4140 54° Northeast 543 625 34,000  Descending FlightAware ADS-B
Mon 09:27:24 PM -25.3192 156.7385 54° Northeast 527 606 37,000 2,250 Climbing Aus ATC (RADAR)
Mon 09:27:49 PM -25.2848 156.7953 56° Northeast 527 606 37,000  Level Aus ATC (RADAR)
Mon 09:28:14 PM -25.2502 156.8522 56° Northeast 526 605 37,000  Level Aus ATC (RADAR)
Mon 09:28:54 PM -25.1965 156.9430 57° Northeast 526 605 37,000  Level Aus ATC (RADAR)
Mon 09:29:29 PM -25.1503 157.0250 58° Northeast 526 605 37,000  Level Aus ATC (RADAR)
Mon 09:30:04 PM -25.1027 157.1052 57° Northeast 527 606 37,000  Level Aus ATC (RADAR)
Mon 09:30:50 PM -25.0418 157.2087 57° Northeast 527 606 37,000  Level Aus ATC (RADAR)
Mon 09:31:14 PM -25.0076 157.2655 56° Northeast 528 608 37,000  Level Aus ATC (RADAR)
Mon 09:35:04 PM -24.6860 157.7950 57° Northeast 37,000  Level Aus ATC (Calculated)
Mon 09:37:00 PM -24.5475 158.0251 57° Northeast  Level FlightAware Approximate
Mon 09:38:00 PM -24.4757 158.1439 56° Northeast  Level FlightAware Approximate
Mon 09:39:00 PM -24.4038 158.2626 56° Northeast  Level FlightAware Approximate
Mon 09:40:00 PM -24.3318 158.3812 56° Northeast  Level FlightAware Approximate
Mon 09:41:00 PM -24.2597 158.4996 56° Northeast  Level FlightAware Approximate
Mon 09:41:23 PM -24.1633 158.6577 56° Northeast 37,000  Level Aus ATC (Calculated)
Mon 09:43:00 PM -24.0464 158.8485 56° Northeast  Level FlightAware Approximate
Mon 09:44:00 PM -23.9739 158.9664 56° Northeast  Level FlightAware Approximate
Mon 09:45:00 PM -23.9014 159.0842 56° Northeast  Level FlightAware Approximate
Mon 09:46:00 PM -23.8288 159.2018 56° Northeast  Level FlightAware Approximate
Mon 09:47:00 PM -23.7561 159.3194 56° Northeast  Level FlightAware Approximate
Mon 09:48:00 PM -23.4782 159.4220 176° South 37,000  Level Aus ATC (Calculated)
Mon 09:48:00 PM -23.6833 159.4367 56° Northeast  Level FlightAware Approximate
Mon 09:49:00 PM -23.5928 159.4884 152° Southeast  Level FlightAware Approximate
Mon 09:49:23 PM -23.3229 159.5935 193° South 37,000  Level Aus ATC (Calculated)
Mon 09:51:00 PM -23.5272 159.5412 193° South  Level FlightAware Approximate
Mon 09:51:06 PM -23.1747 159.7566 45° Northeast 37,000  Level Aus ATC (Calculated)
Mon 09:51:58 PM -23.0805 159.8601 45° Northeast 37,000  Level Aus ATC (Calculated)
Mon 09:52:22 PM -23.0348 159.9101 215° Southwest 37,000  Level Aus ATC (Calculated)
Mon 09:53:00 PM -23.1969 159.7877 210° Southwest  Level FlightAware Approximate
Mon 09:54:00 PM -23.2162 159.7908 211° Southwest  Level FlightAware Approximate
Mon 09:55:00 PM -23.3272 159.7176 211° Southwest  Level FlightAware Approximate
Mon 09:56:00 PM -23.2329 159.8147 43° Northeast  Level Estimated
Mon 09:57:00 PM -23.1399 159.9132 44° Northeast  Level FlightAware Approximate
Mon 09:58:00 PM -23.0468 160.0115 44° Northeast  Level FlightAware Approximate
Mon 09:59:00 PM -22.9536 160.1096 44° Northeast  Level FlightAware Approximate
Mon 10:00:00 PM -22.8604 160.2077 44° Northeast  Level FlightAware Approximate
Mon 10:01:00 PM -22.7671 160.3056 44° Northeast  Level FlightAware Approximate
Mon 10:02:00 PM -22.6737 160.4033 44° Northeast  Level FlightAware Approximate
Mon 10:03:00 PM -22.5803 160.5010 44° Northeast  Level FlightAware Approximate
Mon 10:04:00 PM -22.4869 160.5985 44° Northeast  Level FlightAware Approximate
Mon 10:05:00 PM -22.3933 160.6958 44° Northeast  Level FlightAware Approximate
Mon 10:06:00 PM -22.2997 160.7931 44° Northeast  Level FlightAware Approximate
Mon 10:06:00 PM -21.6450 161.4100 45° Northeast 37,000  Level Aus ATC (Calculated)
Mon 10:07:00 PM -21.5526 161.5081 45° Northeast  Level FlightAware Approximate
Mon 10:08:00 PM -21.4602 161.6061 45° Northeast  Level FlightAware Approximate
Mon 10:09:00 PM -21.3678 161.7040 45° Northeast  Level FlightAware Approximate
Mon 10:10:00 PM -21.2753 161.8017 45° Northeast  Level FlightAware Approximate
Mon 10:11:00 PM -21.1827 161.8993 45° Northeast  Level FlightAware Approximate
Mon 10:12:00 PM -21.0901 161.9968 44° Northeast  Level FlightAware Approximate
Mon 10:13:00 PM -20.9974 162.0941 44° Northeast  Level FlightAware Approximate
Mon 10:14:00 PM -20.9047 162.1914 44° Northeast  Level FlightAware Approximate
Mon 10:15:00 PM -20.8119 162.2885 44° Northeast  Level FlightAware Approximate
Mon 10:16:00 PM -20.7190 162.3855 44° Northeast  Level FlightAware Approximate
Mon 10:16:00 PM -20.6505 162.4570 44° Northeast 37,000  Level Aus ATC (Calculated)
Mon 10:17:00 PM -20.6262 162.4824 44° Northeast  Level FlightAware Approximate
Mon 10:18:00 PM -20.5332 162.5791 44° Northeast  Level FlightAware Approximate
Mon 10:19:00 PM -20.4402 162.6758 44° Northeast  Level FlightAware Approximate
Mon 10:20:00 PM -20.3471 162.7723 44° Northeast  Level FlightAware Approximate
Mon 10:21:00 PM -20.2540 162.8687 44° Northeast  Level FlightAware Approximate
Mon 10:22:00 PM -20.1609 162.9650 44° Northeast  Level FlightAware Approximate
Mon 10:23:00 PM -20.0676 163.0612 44° Northeast  Level FlightAware Approximate
Mon 10:24:00 PM -19.9055 163.2281 44° Northeast  Level FlightAware Approximate
Mon 10:25:00 PM -19.8082 163.3194 42° Northeast  Level Estimated
Mon 10:26:00 PM -19.7108 163.4106 41° Northeast  Level FlightAware Approximate
Mon 10:27:00 PM -19.6134 163.5017 41° Northeast  Level FlightAware Approximate
Mon 10:28:00 PM -19.5160 163.5927 41° Northeast  Level FlightAware Approximate
Mon 10:29:00 PM -19.4185 163.6836 41° Northeast  Level FlightAware Approximate
Mon 10:30:00 PM -19.3209 163.7743 41° Northeast  Level FlightAware Approximate
Mon 10:31:00 PM -19.2233 163.8650 41° Northeast  Level FlightAware Approximate
Mon 10:32:00 PM -19.1257 163.9555 41° Northeast  Level FlightAware Approximate
Mon 10:33:00 PM -19.0280 164.0460 41° Northeast  Level FlightAware Approximate
Mon 10:34:00 PM -18.9303 164.1363 41° Northeast  Level FlightAware Approximate
Mon 10:35:00 PM -18.8325 164.2265 41° Northeast  Level FlightAware Approximate
Mon 10:36:00 PM -18.7347 164.3167 41° Northeast  Level FlightAware Approximate
Mon 10:37:00 PM -18.6369 164.4067 41° Northeast  Level FlightAware Approximate
Mon 10:38:00 PM -18.5390 164.4966 41° Northeast  Level FlightAware Approximate
Mon 10:39:00 PM -18.4410 164.5864 41° Northeast  Level FlightAware Approximate
Mon 10:40:00 PM -18.3431 164.6761 41° Northeast  Level FlightAware Approximate
Mon 10:41:00 PM -18.2451 164.7657 41° Northeast  Level FlightAware Approximate
Mon 10:42:00 PM -18.1470 164.8552 41° Northeast  Level FlightAware Approximate
Mon 10:43:00 PM -18.0489 164.9446 41° Northeast  Level FlightAware Approximate
Mon 10:44:00 PM -17.9508 165.0340 41° Northeast  Level FlightAware Approximate
Mon 10:45:00 PM -17.8526 165.1232 41° Northeast  Level FlightAware Approximate
Mon 10:46:00 PM -17.7543 165.2123 41° Northeast  Level FlightAware Approximate
Mon 10:47:00 PM -17.6561 165.3013 41° Northeast  Level FlightAware Approximate
Mon 10:48:00 PM -17.5578 165.3902 41° Northeast  Level FlightAware Approximate
Mon 10:49:00 PM -17.4594 165.4790 41° Northeast  Level FlightAware Approximate
Mon 10:50:00 PM -17.3610 165.5677 41° Northeast  Level FlightAware Approximate
Mon 10:51:00 PM -17.2626 165.6564 41° Northeast  Level FlightAware Approximate
Mon 10:52:00 PM -17.1641 165.7449 41° Northeast  Level FlightAware Approximate
Mon 10:53:00 PM -17.0656 165.8333 41° Northeast  Level FlightAware Approximate
Mon 10:54:00 PM -16.9671 165.9217 41° Northeast  Level FlightAware Approximate
Mon 10:55:00 PM -16.8685 166.0099 41° Northeast  Level FlightAware Approximate
Mon 10:56:00 PM -16.7699 166.0981 41° Northeast  Level FlightAware Approximate
Mon 10:57:00 PM -16.6712 166.1862 41° Northeast  Level FlightAware Approximate
Mon 10:58:00 PM -16.5726 166.2741 41° Northeast  Level FlightAware Approximate
Mon 10:59:00 PM -16.4738 166.3620 40° Northeast  Level FlightAware Approximate
Mon 11:00:00 PM -16.3751 166.4498 40° Northeast  Level FlightAware Approximate
Mon 11:01:00 PM -16.2763 166.5375 40° Northeast  Level FlightAware Approximate
Mon 11:02:00 PM -16.1774 166.6252 40° Northeast  Level FlightAware Approximate
Mon 11:03:00 PM -16.0786 166.7127 40° Northeast  Level FlightAware Approximate
Mon 11:04:00 PM -15.9796 166.8001 40° Northeast  Level FlightAware Approximate
Mon 11:05:00 PM -15.8807 166.8875 40° Northeast  Level FlightAware Approximate
Mon 11:06:00 PM -15.7817 166.9747 40° Northeast  Level FlightAware Approximate
Mon 11:07:00 PM -15.6827 167.0619 40° Northeast  Level FlightAware Approximate
Mon 11:08:00 PM -15.5837 167.1490 40° Northeast  Level FlightAware Approximate
Mon 11:09:00 PM -15.5013 167.2226 40° Northeast  Level Estimated
Mon 11:10:00 PM -15.5013 167.2226 227° Southwest  Level Estimated
Mon 11:11:00 PM -15.5013 167.2226 227° Southwest  Level Estimated
Mon 11:12:00 PM -15.5013 167.2226 227° Southwest  Level Estimated
Mon 11:13:00 PM -15.5013 167.2226 42° Northeast  Level Estimated
Mon 11:14:00 PM -15.5013 167.2226 42° Northeast  Level Estimated
Mon 11:15:00 PM -15.5013 167.2226 42° Northeast  Level Estimated
Mon 11:16:00 PM -15.5013 167.2226 42° Northeast  Level Estimated
Mon 11:17:00 PM -15.5013 167.2226 42° Northeast  Level Estimated
Mon 11:18:00 PM -15.5013 167.2226 42° Northeast  Level Estimated
Mon 11:19:00 PM -15.5013 167.2226 42° Northeast  Level Estimated
Mon 11:20:00 PM -15.5013 167.2226 42° Northeast  Level Estimated
Mon 11:21:00 PM -15.5013 167.2226 42° Northeast  Level Estimated
Mon 11:22:00 PM -15.5013 167.2226 42° Northeast  Level Estimated
Mon 11:23:00 PM -15.5013 167.2226 42° Northeast  Level Estimated
Mon 11:24:00 PM -15.5013 167.2226 42° Northeast  Level Estimated
Mon 11:25:00 PM -15.5013 167.2226 42° Northeast  Level Estimated

Login

Don't have an account? Register now (free) for customized features, flight alerts, and more!